Airfield :







YOU CAN JOIN US ON...

 
LOGIN :

Register | Disclaimer

   EN    FR    IT 

 









Legend :    VFR   Marginal VFR   IFR   Intensive IFR   Very Intensive IFR
Visi :
Ceiling :
>= 8 km
>= 3000ft
5 to 8 km
1000 to 3000 ft
1500m to 5 km
500 to 1000 ft
800 to 1500m
200 to 500 ft
< 800m
< 200 ft
Symbols :   Thunderstorms  Fog  Heavy snow  Heavy precipitations  Wind > 20 kt






- Airport Elevation : 496 ft
- IATA code : YQX


CYQX - Gander

CURRENT METAR :
  • 131738Z 27015G26KT 20SM -SHRA SCT048 BKN056 OVC085 11/05 A2972 RMK SC3CU2AS3 SLP070

EXPIRED METARs :
  • 131700Z 27010G16KT 250V340 20SM SCT056 BKN084 OVC130 14/02 A2971 RMK CU3AS4AC1 SUN DMLY VISBL SH DIST N-S/NW SLP067 DENSITY ALT 700FT
  • 131600Z 28012KT 20SM BKN058 BKN088 OVC110 13/02 A2972 RMK CU5AC2AC1 SH DIST W-NW SLP068 DENSITY ALT 700FT

TAF TAF CYQX
Valid from the 13 at 18:00 until the 14 at 18:00 UTC


131738Z 1318/1418 24012KT P6SM -SHRA SCT020 OVC040
TEMPO 1320/1323 4SM -SHRA BR BKN020
PROB30 1320/1323 2SM TSRA BR OVC020CB
FM132300 28008KT P6SM -SHRA SCT005 OVC025
TEMPO 1323/1402 5SM -RA BR OVC005
FM140200 34012KT P6SM SCT004 OVC030
TEMPO 1402/1406 3SM -RA BR OVC004
PROB30 1402/1406 1SM BR OVC003
FM141200 35010KT P6SM BKN012
FM141600 34008KT P6SM SCT020 RMK NXT FCST BY 140000Z
CZQX FIR / North America



MET'MAP, your aeronautical weather chart ! - Copyright ORBIFLY December 2007 - Disclaimer

ORBIFLY MET'MAP TEAM :

Programming & Development : Alexandra Zaïnal
Concept & original design : Baudouin d'Aumeries
Assistance for programming : Marc-Olivier Méhu
Technical & hardware support : Manuel Goepfert

Contact : metmap@orbifly.com




SOURCES & CREDITS :

   NOAA